Friday, October 20, 2017, 9:17 PM EDT
Back to Local

KMVY, Vineyard Haven Marthas Vin

Location: Vineyard Haven, MA, United States Lat: 41.4
Local Time: 9:17 PM EDT ( 1:17 GMT) Lon: -70.617
Time Zone: US/Eastern Elev: 68 ft

Show me the last for .
Show Coded

Time T Td Feel RH Dir Speed Gust Alt SLP Vis Weather Sky Remarks
2017-10-20 20:53 59 43 - 55 300° 8 - 30.09 30.09 10 CLR None
2017-10-20 19:53 56 46 - 69 290° 7 - 30.06 30.06 10 CLR 6-hr Min Temp (8pm): 53.1°F
6-hr Max Temp (8pm): 69.1°F
2017-10-20 18:53 57 46 - 66 290° 6 - 30.05 30.05 10 CLR None
2017-10-20 17:53 62 45 - 53 290° 3 - 30.04 30.03 10 CLR None
2017-10-20 16:53 67 45 - 45 300° 7 - 30.02 30.02 10 CLR None
2017-10-20 15:53 69 43 - 38 290° 9 - 30.01 30.01 10 CLR None
2017-10-20 14:53 69 43 - 38 280° 10 - 30.00 30.00 10 CLR None
2017-10-20 13:53 68 42 - 38 300° 10 21 30.01 30.01 10 CLR 6-hr Min Temp (2pm): 59.0°F
6-hr Max Temp (2pm): 70.0°F
2017-10-20 12:53 68 42 - 38 310° 10 21 30.02 30.02 10 CLR None
2017-10-20 11:53 67 43 - 41 320° 16 - 30.04 30.03 10 CLR None
2017-10-20 10:53 66 46 - 48 320° 14 - 30.05 30.05 10 CLR None
2017-10-20 09:53 65 48 - 54 320° 13 - 30.06 30.05 10 CLR None
2017-10-20 08:53 62 49 - 62 310° 10 - 30.05 30.05 10 CLR None
2017-10-20 07:53 59 49 - 69 310° 8 - 30.03 30.03 10 CLR 6-hr Min Temp (8am): 57.0°F
6-hr Max Temp (8am): 61.0°F
2017-10-20 06:53 58 47 - 66 310° 8 - 30.02 30.02 10 CLR None
2017-10-20 05:53 59 50 - 72 300° 8 - 30.01 30.01 10 CLR None
2017-10-20 04:53 60 56 - 86 280° 8 - 30.01 30.01 10 CLR None
2017-10-20 03:53 61 58 - 89 240° 6 - 30.01 30.01 10 CLR None
2017-10-20 02:53 61 58 - 89 240° 9 - 30.01 30.01 10 CLR None
2017-10-20 01:53 61 57 - 86 230° 10 - 30.03 30.03 10 CLR 6-hr Min Temp (2am): 60.1°F
6-hr Max Temp (2am): 62.1°F
2017-10-20 00:53 60 57 - 89 220° 12 - 30.04 30.04 10 CLR 24-hr Min Temp (1am): 39.9°F
24-hr Max Temp (1am): 68.0°F
2017-10-19 23:53 60 57 - 89 230° 12 - 30.06 30.06 10 CLR None
2017-10-19 22:53 60 55 - 83 250° 10 21 30.07 30.06 10 CLR None
2017-10-19 21:53 60 54 - 80 230° 13 - 30.06 30.06 10 CLR None

Support USWX by starting your Amazon purchase here.